Airfield :
LOGIN :

Register | Disclaimer

   EN    FR    IT 

 










Legend :    VFR   Marginal VFR   IFR   Intensive IFR   Very Intensive IFR
Visi :
Ceiling :
>= 8 km
>= 3000ft
5 to 8 km
1000 to 3000 ft
1500m to 5 km
500 to 1000 ft
800 to 1500m
200 to 500 ft
< 800m
< 200 ft
Symbols :   Thunderstorms  Fog  Heavy snow  Heavy precipitations  Wind > 20 kt
SIGMETs :     Misc.  Thunderstorms  Icing  Turbulence  Mountain Waves  Volcanic Ashes







- Airport Elevation : 584 ft
- Download approach charts


LFPV - Villacoublay Vélizy

CURRENT METAR :
  • 191800Z AUTO 20005KT 160V230 9999 FEW041 OVC049 18/12 Q1008 TEMPO 19015G25KT

EXPIRED METARs :
  • 191730Z AUTO 20005KT 160V240 9999 BKN044 OVC052 18/12 Q1008 TEMPO 19015G25KT
  • 191700Z AUTO 20006KT 170V240 9999 FEW047 SCT066 BKN098 18/12 Q1008 TEMPO 19015G25KT
  • 191630Z AUTO 21008KT 190V260 9999 FEW041 BKN052 BKN100 18/12 Q1008 TEMPO 19015G25KT
  • 191600Z AUTO 21009KT 180V240 9999 BKN037 BKN044 OVC054 19/12 Q1008 TEMPO 19015G25KT
  • 191530Z AUTO 20010KT 170V230 9999 BKN033 BKN040 BKN054 19/12 Q1007 TEMPO 19015G25KT

TAF TAF LFPV
Valid from the 19 at 15:00 until the 20 at 15:00 UTC


191400Z 1915/2015 18012KT 9999 SCT030 SCT040
BECMG 1921/1923 BKN012
TEMPO 1923/2003 19015G30KT 4000 RA BKN009
PROB30
TEMPO 1915/2015 19015G25KT
No reported NOTAMs for that airfield.



MET'MAP, your aeronautical weather chart ! - Copyright ORBIFLY December 2007 - Disclaimer

ORBIFLY MET'MAP TEAM :

Programming & Development : Alexandra Zaïnal
Concept & Development : Baudouin d'Aumeries
Co-Development & Prog : Marc-Olivier Méhu
Technical & hardware support : Manuel Goepfert

Contact : metmap@orbifly.com




SOURCES & CREDITS :

   NOAA